createdAt,value
2023-03-22T00:00:27.607Z,6.83
2023-03-22T00:03:33.430Z,6.75
2023-03-22T00:06:39.803Z,6.69
2023-03-22T00:09:45.597Z,6.60
2023-03-22T00:12:52.056Z,6.55
2023-03-22T00:16:03.041Z,6.52
2023-03-22T00:19:09.347Z,6.48
2023-03-22T00:22:14.831Z,6.42
2023-03-22T00:25:21.606Z,6.40
2023-03-22T00:28:27.855Z,6.35
2023-03-22T00:31:36.991Z,6.32
2023-03-22T00:34:42.479Z,6.29
2023-03-22T00:37:51.774Z,6.27
2023-03-22T00:40:57.545Z,6.23
2023-03-22T00:44:03.834Z,6.19
2023-03-22T00:47:12.445Z,6.17
2023-03-22T00:50:18.696Z,6.11
2023-03-22T00:53:24.156Z,6.06
2023-03-22T00:56:34.073Z,6.06
2023-03-22T00:59:48.105Z,6.02
2023-03-22T01:03:04.316Z,5.98
2023-03-22T01:06:11.747Z,5.92
2023-03-22T01:09:18.286Z,5.89
2023-03-22T01:12:24.712Z,5.89
2023-03-22T01:15:31.456Z,5.83
2023-03-22T01:18:40.224Z,5.82
2023-03-22T01:21:47.364Z,5.75
2023-03-22T01:24:54.501Z,5.72
2023-03-22T01:28:03.085Z,5.66
2023-03-22T01:31:09.305Z,5.62
2023-03-22T01:34:18.810Z,5.59
2023-03-22T01:37:27.933Z,5.56
2023-03-22T01:40:36.804Z,5.48
2023-03-22T01:43:42.836Z,5.42
2023-03-22T01:46:52.870Z,5.10
2023-03-22T01:50:02.101Z,5.30
2023-03-22T01:53:15.726Z,5.28
2023-03-22T01:56:28.512Z,5.26
2023-03-22T01:59:35.736Z,5.25
2023-03-22T02:02:56.316Z,5.24
2023-03-22T02:06:15.554Z,5.23
2023-03-22T02:09:22.353Z,5.19
2023-03-22T02:12:50.497Z,5.10
2023-03-22T02:16:41.707Z,5.05
2023-03-22T02:21:01.196Z,5.02
2023-03-22T02:24:56.499Z,5.03
2023-03-22T02:28:20.995Z,4.93
2023-03-22T02:32:14.231Z,4.88
2023-03-22T02:35:44.491Z,4.85
2023-03-22T02:39:24.600Z,4.64
2023-03-22T02:42:53.396Z,4.91
2023-03-22T02:46:12.461Z,4.85
2023-03-22T02:49:34.400Z,4.89
2023-03-22T02:52:49.408Z,4.86
2023-03-22T02:56:06.829Z,4.94
2023-03-22T02:59:17.158Z,4.94
2023-03-22T03:02:25.492Z,4.90
2023-03-22T03:05:37.625Z,4.85
2023-03-22T03:08:46.969Z,4.81
2023-03-22T03:11:58.032Z,4.76
2023-03-22T03:15:04.177Z,4.82
2023-03-22T03:18:35.204Z,4.83
2023-03-22T03:21:56.961Z,4.84
2023-03-22T03:25:20.379Z,4.78
2023-03-22T03:28:43.753Z,4.80
2023-03-22T03:32:03.013Z,4.79
2023-03-22T03:35:22.747Z,4.79
2023-03-22T03:38:37.651Z,4.79
2023-03-22T03:41:49.774Z,4.81
2023-03-22T03:45:00.644Z,4.90
2023-03-22T03:48:13.262Z,4.92
2023-03-22T03:51:20.724Z,4.99
2023-03-22T03:54:27.426Z,5.02
2023-03-22T03:57:33.976Z,4.96
2023-03-22T04:00:43.008Z,4.93
2023-03-22T04:04:06.297Z,4.74
2023-03-22T04:07:33.793Z,4.81
2023-03-22T04:10:40.935Z,4.83
2023-03-22T04:13:46.793Z,4.90
2023-03-22T04:17:01.964Z,4.97
2023-03-22T04:20:11.601Z,4.98
2023-03-22T04:23:22.668Z,4.95
2023-03-22T04:26:30.592Z,4.88
2023-03-22T04:29:56.479Z,4.79
2023-03-22T04:33:55.671Z,4.46
2023-03-22T04:37:09.609Z,4.60
2023-03-22T04:40:20.993Z,4.54
2023-03-22T04:43:39.720Z,4.50
2023-03-22T04:46:49.707Z,4.51
2023-03-22T04:49:59.754Z,4.46
2023-03-22T04:53:08.056Z,4.63
2023-03-22T04:56:17.980Z,4.69
2023-03-22T04:59:25.474Z,4.80
2023-03-22T05:02:32.789Z,4.88
2023-03-22T05:05:41.258Z,4.93
2023-03-22T05:08:48.030Z,5.04
2023-03-22T05:11:54.419Z,5.02
2023-03-22T05:15:43.090Z,4.92
2023-03-22T05:18:54.624Z,4.86
2023-03-22T05:22:04.299Z,4.81
2023-03-22T05:25:27.808Z,4.84
2023-03-22T05:28:36.153Z,4.93
2023-03-22T05:31:49.985Z,4.98
2023-03-22T05:34:56.522Z,5.03
2023-03-22T05:38:13.357Z,5.06
2023-03-22T05:41:25.247Z,5.16
2023-03-22T05:44:31.336Z,5.21
2023-03-22T05:47:46.970Z,5.33
2023-03-22T05:50:57.654Z,4.75
2023-03-22T05:54:07.836Z,5.56
2023-03-22T05:57:19.237Z,5.50
2023-03-22T06:00:26.438Z,5.47
2023-03-22T06:03:52.287Z,5.50
2023-03-22T06:07:06.559Z,5.72
2023-03-22T06:10:24.411Z,5.77
2023-03-22T06:13:31.292Z,5.87
2023-03-22T06:16:37.282Z,5.88
2023-03-22T06:19:43.781Z,6.02
2023-03-22T06:22:51.615Z,6.02
2023-03-22T06:26:01.296Z,6.02
2023-03-22T06:29:08.066Z,6.05
2023-03-22T06:32:14.952Z,6.02
2023-03-22T06:35:21.096Z,6.07
2023-03-22T06:38:28.191Z,6.09
2023-03-22T06:41:37.187Z,6.17
2023-03-22T06:44:44.984Z,6.25
2023-03-22T06:47:55.129Z,6.32
2023-03-22T06:51:13.999Z,6.44
2023-03-22T06:54:20.102Z,6.56
2023-03-22T06:57:29.395Z,6.68
2023-03-22T07:00:35.144Z,6.83
2023-03-22T07:03:42.437Z,6.94
2023-03-22T07:06:52.430Z,7.03
2023-03-22T07:09:59.813Z,7.11
2023-03-22T07:13:08.632Z,7.22
2023-03-22T07:16:18.704Z,7.25
2023-03-22T07:19:35.248Z,7.37
2023-03-22T07:22:46.672Z,7.45
2023-03-22T07:25:53.794Z,7.53
2023-03-22T07:29:13.251Z,7.66
2023-03-22T07:32:19.447Z,7.82
2023-03-22T07:35:40.986Z,8.04
2023-03-22T07:38:47.189Z,8.16
2023-03-22T07:41:59.884Z,8.29
2023-03-22T07:45:29.173Z,8.28
2023-03-22T07:48:54.434Z,8.53
2023-03-22T07:52:18.306Z,8.70
2023-03-22T07:55:24.922Z,8.85
2023-03-22T07:58:30.681Z,8.92
2023-03-22T08:01:40.962Z,9.06
2023-03-22T08:04:59.699Z,9.20
2023-03-22T08:08:33.515Z,9.28
2023-03-22T08:11:40.212Z,9.39
2023-03-22T08:14:50.655Z,9.51
2023-03-22T08:18:04.283Z,9.66
2023-03-22T08:21:30.960Z,9.77
2023-03-22T08:24:37.726Z,9.75
2023-03-22T08:27:46.706Z,9.89
2023-03-22T08:30:54.650Z,10.02
2023-03-22T08:34:04.973Z,10.11
2023-03-22T08:37:12.261Z,10.21
2023-03-22T08:40:20.232Z,10.29
2023-03-22T08:43:31.249Z,10.35
2023-03-22T08:46:37.808Z,9.21
2023-03-22T08:49:46.216Z,10.53
2023-03-22T08:53:00.890Z,10.61
2023-03-22T08:56:11.138Z,10.76
2023-03-22T08:59:35.202Z,10.91
2023-03-22T09:02:59.349Z,11.05
2023-03-22T09:06:09.821Z,11.22
2023-03-22T09:09:17.994Z,11.37
2023-03-22T09:12:29.940Z,11.47
2023-03-22T09:15:35.682Z,11.61
2023-03-22T09:18:50.670Z,11.66
2023-03-22T09:22:02.576Z,11.83
2023-03-22T09:25:19.512Z,11.93
2023-03-22T09:28:27.516Z,11.94
2023-03-22T09:31:36.529Z,12.02
2023-03-22T09:34:57.532Z,12.16
2023-03-22T09:38:12.412Z,12.27
2023-03-22T09:41:27.403Z,11.24
2023-03-22T09:44:44.382Z,12.06
2023-03-22T09:48:01.965Z,11.86
2023-03-22T09:51:22.704Z,11.52
2023-03-22T09:54:38.651Z,11.66
2023-03-22T09:57:45.373Z,11.58
2023-03-22T10:01:01.746Z,11.59
2023-03-22T10:04:41.762Z,11.46
2023-03-22T10:08:11.779Z,11.50
2023-03-22T10:11:38.324Z,11.38
2023-03-22T10:14:51.958Z,11.47
2023-03-22T10:18:05.556Z,11.64
2023-03-22T10:21:15.496Z,11.79
2023-03-22T10:24:29.808Z,12.10
2023-03-22T10:27:40.584Z,12.33
2023-03-22T10:30:55.793Z,12.42
2023-03-22T10:34:08.868Z,12.45
2023-03-22T10:37:21.409Z,12.57
2023-03-22T10:40:32.523Z,12.70
2023-03-22T10:43:45.880Z,12.77
2023-03-22T10:46:55.782Z,12.87
2023-03-22T10:50:10.147Z,12.98
2023-03-22T10:53:31.723Z,13.12
2023-03-22T10:56:38.130Z,13.24
2023-03-22T10:59:55.060Z,13.38
2023-03-22T11:03:04.380Z,13.49
2023-03-22T11:06:14.614Z,13.46
2023-03-22T11:09:23.811Z,13.49
2023-03-22T11:12:32.499Z,13.58
2023-03-22T11:15:52.692Z,13.59
2023-03-22T11:19:01.269Z,13.55
2023-03-22T11:22:23.333Z,13.42
2023-03-22T11:25:34.250Z,13.47
2023-03-22T11:28:49.533Z,13.30
2023-03-22T11:32:01.970Z,13.28
2023-03-22T11:35:18.052Z,13.23
2023-03-22T11:38:32.766Z,13.16
2023-03-22T11:41:43.662Z,13.14
2023-03-22T11:44:49.599Z,13.09
2023-03-22T11:48:05.813Z,13.09
2023-03-22T11:51:15.930Z,13.15
2023-03-22T11:54:33.642Z,13.01
2023-03-22T11:57:41.387Z,13.02
2023-03-22T12:00:52.600Z,13.00
2023-03-22T12:04:04.816Z,13.06
2023-03-22T12:07:22.264Z,13.18
2023-03-22T12:10:35.504Z,13.28
2023-03-22T12:13:52.906Z,13.36
2023-03-22T12:17:05.925Z,13.34
2023-03-22T12:20:33.246Z,13.54
2023-03-22T12:23:39.712Z,13.52
2023-03-22T12:26:47.525Z,13.50
2023-03-22T12:30:01.930Z,13.61
2023-03-22T12:33:22.177Z,13.73
2023-03-22T12:36:43.289Z,13.81
2023-03-22T12:39:58.369Z,13.68
2023-03-22T12:43:16.900Z,13.69
2023-03-22T12:46:29.267Z,13.84
2023-03-22T12:49:49.337Z,13.96
2023-03-22T12:52:59.726Z,13.99
2023-03-22T12:56:06.792Z,14.08
2023-03-22T12:59:23.725Z,14.03
2023-03-22T13:02:35.733Z,13.97
2023-03-22T13:05:42.779Z,14.00
2023-03-22T13:09:40.632Z,14.08
2023-03-22T13:13:17.712Z,13.95
2023-03-22T13:16:27.649Z,13.95
2023-03-22T13:19:39.696Z,13.90
2023-03-22T13:23:30.651Z,13.94
2023-03-22T13:26:49.726Z,13.93
2023-03-22T13:30:05.897Z,13.99
2023-03-22T13:33:27.610Z,14.21
2023-03-22T13:36:37.591Z,14.33
2023-03-22T13:39:46.654Z,14.40
2023-03-22T13:42:56.262Z,14.54
2023-03-22T13:46:48.529Z,14.59
2023-03-22T13:50:06.834Z,14.52
2023-03-22T13:53:28.736Z,14.65
2023-03-22T13:56:57.422Z,14.81
2023-03-22T14:00:20.852Z,14.83
2023-03-22T14:03:35.148Z,14.87
2023-03-22T14:06:57.554Z,14.82
2023-03-22T14:10:09.889Z,14.87
2023-03-22T14:13:30.775Z,14.97
2023-03-22T14:16:49.766Z,14.98
2023-03-22T14:19:58.465Z,15.13
2023-03-22T14:55:05.111Z,15.29
2023-03-22T14:58:20.360Z,15.38
2023-03-22T15:01:33.539Z,15.24
2023-03-22T15:08:16.338Z,15.18
2023-03-22T15:11:25.222Z,15.08
2023-03-22T15:14:37.053Z,15.05
2023-03-22T15:17:47.659Z,15.07
2023-03-22T15:20:58.292Z,15.07
2023-03-22T15:24:32.688Z,15.08
2023-03-22T15:27:40.175Z,15.17
2023-03-22T15:30:53.655Z,15.18
2023-03-22T15:33:59.311Z,15.15
2023-03-22T15:37:09.299Z,15.16
2023-03-22T15:40:40.916Z,15.07
2023-03-22T15:43:48.721Z,14.98
2023-03-22T15:47:00.772Z,15.04
2023-03-22T15:50:12.427Z,14.87
2023-03-22T15:53:35.333Z,15.00
2023-03-22T15:56:47.676Z,14.88
2023-03-22T16:00:20.645Z,14.95
2023-03-22T16:03:44.390Z,14.88
2023-03-22T16:06:51.314Z,14.77
2023-03-22T16:10:02.331Z,14.82
2023-03-22T16:13:20.721Z,14.75
2023-03-22T16:16:32.436Z,14.69
2023-03-22T16:19:38.202Z,14.58
2023-03-22T16:22:48.070Z,14.60
2023-03-22T16:25:56.854Z,14.52
2023-03-22T16:29:03.976Z,14.51
2023-03-22T16:32:16.812Z,14.42
2023-03-22T16:35:28.012Z,14.43
2023-03-22T16:38:33.954Z,14.35
2023-03-22T16:41:43.936Z,14.29
2023-03-22T16:44:56.183Z,14.19
2023-03-22T16:48:04.557Z,14.07
2023-03-22T16:51:23.876Z,14.01
2023-03-22T16:57:39.117Z,13.80
2023-03-22T17:00:45.718Z,13.75
2023-03-22T17:03:54.491Z,13.67
2023-03-22T17:07:01.250Z,13.61
2023-03-22T17:10:09.005Z,13.52
2023-03-22T17:13:19.319Z,13.49
2023-03-22T17:16:26.205Z,13.43
2023-03-22T17:19:34.219Z,13.35
2023-03-22T17:22:41.038Z,13.23
2023-03-22T17:25:51.714Z,13.20
2023-03-22T17:29:00.335Z,13.12
2023-03-22T17:32:16.795Z,13.09
2023-03-22T17:35:34.601Z,12.69
2023-03-22T17:38:49.720Z,13.04
2023-03-22T17:42:09.235Z,12.97
2023-03-22T17:45:27.541Z,12.92
2023-03-22T17:48:34.270Z,12.86
2023-03-22T17:51:41.143Z,12.81
2023-03-22T17:58:27.529Z,12.75
2023-03-22T18:01:27.908Z,12.68
2023-03-22T18:04:37.311Z,12.65
2023-03-22T18:07:43.694Z,12.59
2023-03-22T18:10:50.424Z,12.58
2023-03-22T18:13:57.530Z,12.52
2023-03-22T18:17:17.362Z,12.49
2023-03-22T18:20:46.200Z,12.49
2023-03-22T18:23:52.474Z,12.48
2023-03-22T18:27:10.595Z,12.47
2023-03-22T18:30:23.194Z,12.43
2023-03-22T18:33:32.972Z,12.33
2023-03-22T18:36:40.816Z,12.34
2023-03-22T18:40:22.893Z,12.31
2023-03-22T18:43:15.097Z,12.32
2023-03-22T18:46:21.767Z,12.27
2023-03-22T18:49:31.336Z,12.19
2023-03-22T18:52:54.299Z,12.18
2023-03-22T18:56:06.887Z,12.10
2023-03-22T18:59:15.763Z,12.04
2023-03-22T19:02:38.302Z,11.97
2023-03-22T19:05:48.988Z,12.00
2023-03-22T19:08:58.334Z,11.98
2023-03-22T19:12:04.367Z,11.98
2023-03-22T19:18:24.121Z,11.90
2023-03-22T19:21:34.764Z,11.85
2023-03-22T19:24:42.057Z,11.75
2023-03-22T19:27:51.970Z,11.75
2023-03-22T19:30:59.853Z,11.71
2023-03-22T19:34:06.774Z,11.68
2023-03-22T19:37:15.477Z,11.62
2023-03-22T19:41:23.503Z,11.63
2023-03-22T19:43:48.720Z,11.57
2023-03-22T19:46:56.430Z,11.51
2023-03-22T19:50:02.736Z,11.44
2023-03-22T19:53:51.814Z,11.10
2023-03-22T19:56:39.677Z,11.44
2023-03-22T19:59:57.177Z,11.44
2023-03-22T20:03:12.989Z,11.38
2023-03-22T20:06:20.343Z,11.34
2023-03-22T20:09:29.259Z,11.35
2023-03-22T20:12:36.096Z,11.30
2023-03-22T20:15:42.346Z,11.19
2023-03-22T20:18:49.286Z,11.17
2023-03-22T20:21:55.515Z,11.17
2023-03-22T20:25:06.410Z,11.09
2023-03-22T20:28:13.571Z,11.13
2023-03-22T20:31:21.675Z,11.05
2023-03-22T20:34:27.727Z,11.06
2023-03-22T20:37:35.018Z,11.02
2023-03-22T20:40:44.298Z,11.00
2023-03-22T20:43:51.429Z,10.96
2023-03-22T20:46:57.436Z,10.88
2023-03-22T20:50:04.554Z,10.90
2023-03-22T20:53:10.550Z,10.83
2023-03-22T20:56:20.901Z,10.76
2023-03-22T20:59:26.849Z,10.76
2023-03-22T21:02:33.548Z,10.71
2023-03-22T21:05:41.927Z,10.67
2023-03-22T21:08:48.836Z,10.64
2023-03-22T21:11:57.713Z,10.56
2023-03-22T21:15:04.766Z,10.52
2023-03-22T21:18:10.773Z,10.49
2023-03-22T21:21:17.841Z,10.49
2023-03-22T21:24:24.066Z,10.40
2023-03-22T21:27:34.181Z,10.42
2023-03-22T21:30:42.382Z,10.40
2023-03-22T21:33:48.881Z,10.27
2023-03-22T21:36:54.770Z,10.33
2023-03-22T21:40:07.252Z,10.31
2023-03-22T21:43:15.876Z,10.31
2023-03-22T21:46:23.050Z,10.23
2023-03-22T21:49:30.389Z,10.28
2023-03-22T21:52:37.001Z,10.26
2023-03-22T21:55:44.359Z,10.29
2023-03-22T21:58:54.679Z,10.23
2023-03-22T22:02:00.402Z,10.22
2023-03-22T22:05:07.470Z,10.30
2023-03-22T22:08:13.152Z,10.29
2023-03-22T22:11:20.018Z,10.15
2023-03-22T22:14:28.484Z,10.20
2023-03-22T22:17:35.443Z,10.21
2023-03-22T22:20:41.832Z,10.17
2023-03-22T22:23:49.885Z,10.18
2023-03-22T22:27:07.374Z,10.20
2023-03-22T22:30:23.222Z,10.16
2023-03-22T22:33:29.108Z,10.13
2023-03-22T22:36:36.496Z,10.12
2023-03-22T22:39:42.260Z,10.06
2023-03-22T22:42:48.896Z,10.06
2023-03-22T22:45:57.813Z,10.03
2023-03-22T22:49:04.467Z,9.97
2023-03-22T22:52:11.586Z,9.96
2023-03-22T22:55:18.263Z,9.92
2023-03-22T22:58:24.523Z,9.89
2023-03-22T23:01:34.212Z,9.82
2023-03-22T23:04:40.230Z,9.77
2023-03-22T23:07:47.008Z,9.79
2023-03-22T23:10:56.608Z,9.75
2023-03-22T23:14:06.384Z,9.76
2023-03-22T23:17:14.972Z,9.72
2023-03-22T23:20:23.640Z,9.71
2023-03-22T23:23:30.172Z,9.60
2023-03-22T23:26:38.978Z,9.59
2023-03-22T23:29:45.730Z,9.48
2023-03-22T23:33:01.100Z,9.41
2023-03-22T23:36:20.134Z,9.36
2023-03-22T23:39:29.838Z,9.13
2023-03-22T23:42:35.810Z,9.20
2023-03-22T23:45:43.193Z,9.15
2023-03-22T23:48:52.460Z,9.19
2023-03-22T23:51:59.210Z,9.32
2023-03-22T23:55:05.500Z,9.32
2023-03-22T23:58:12.043Z,9.36
